createdAt,value
2022-10-22T00:00:36.926Z,100298.65
2022-10-22T00:03:03.554Z,100270.89
2022-10-22T00:05:10.477Z,100266.38
2022-10-22T00:07:17.960Z,100279.30
2022-10-22T00:09:24.615Z,100297.12
2022-10-22T00:11:30.821Z,100293.20
2022-10-22T00:13:37.334Z,100285.99
2022-10-22T00:15:43.858Z,100280.00
2022-10-22T00:17:50.858Z,100264.77
2022-10-22T00:19:57.297Z,100217.92
2022-10-22T00:22:06.734Z,100208.12
2022-10-22T00:24:12.913Z,100200.55
2022-10-22T00:26:20.093Z,100193.84
2022-10-22T00:28:29.316Z,100194.15
2022-10-22T00:30:35.742Z,100193.03
2022-10-22T00:32:42.019Z,100191.63
2022-10-22T00:34:48.386Z,100192.23
2022-10-22T00:36:54.745Z,100185.23
2022-10-22T00:39:00.986Z,100174.59
2022-10-22T00:41:07.573Z,100164.17
2022-10-22T00:43:15.427Z,100168.80
2022-10-22T00:45:27.786Z,100172.29
2022-10-22T00:47:40.144Z,100177.41
2022-10-22T00:49:48.224Z,100179.77
2022-10-22T00:51:54.626Z,100173.00
2022-10-22T00:54:06.145Z,100169.02
2022-10-22T00:56:12.860Z,100166.45
2022-10-22T00:58:22.302Z,100156.44
2022-10-22T01:00:32.043Z,100136.86
2022-10-22T01:02:40.404Z,100129.56
2022-10-22T01:04:47.415Z,100127.59
2022-10-22T01:06:54.418Z,100114.51
2022-10-22T01:09:06.894Z,100093.16
2022-10-22T01:11:38.758Z,100087.41
2022-10-22T01:14:14.477Z,100075.59
2022-10-22T01:16:39.141Z,100067.59
2022-10-22T01:18:51.582Z,100060.83
2022-10-22T01:21:02.282Z,100050.89
2022-10-22T01:23:42.710Z,100043.29
2022-10-22T01:26:00.723Z,100027.71
2022-10-22T01:28:24.669Z,100030.16
2022-10-22T01:30:32.205Z,100030.32
2022-10-22T01:33:03.749Z,100027.12
2022-10-22T01:35:13.730Z,100020.93
2022-10-22T01:37:23.150Z,100014.54
2022-10-22T01:39:32.201Z,100006.42
2022-10-22T01:41:40.697Z,100000.38
2022-10-22T01:43:47.082Z,99999.48
2022-10-22T01:45:58.859Z,99993.05
2022-10-22T01:48:28.971Z,99985.85
2022-10-22T01:51:04.611Z,99979.99
2022-10-22T01:53:32.971Z,99978.69
2022-10-22T01:55:54.685Z,99961.50
2022-10-22T01:58:03.775Z,99954.52
2022-10-22T02:00:14.880Z,99953.73
2022-10-22T02:02:24.755Z,99942.08
2022-10-22T02:04:39.736Z,99931.73
2022-10-22T02:06:48.400Z,99923.31
2022-10-22T02:08:56.042Z,99917.84
2022-10-22T02:11:03.328Z,99915.45
2022-10-22T02:13:17.658Z,99906.63
2022-10-22T02:15:27.366Z,99901.70
2022-10-22T02:17:36.487Z,99896.77
2022-10-22T02:19:57.461Z,99888.59
2022-10-22T02:22:03.596Z,99882.94
2022-10-22T02:24:10.208Z,99872.88
2022-10-22T02:26:25.247Z,99870.17
2022-10-22T02:28:38.589Z,99859.88
2022-10-22T02:30:47.987Z,99861.92
2022-10-22T02:33:17.180Z,99861.46
2022-10-22T02:35:27.337Z,99857.02
2022-10-22T02:37:35.128Z,99854.29
2022-10-22T02:39:42.638Z,99850.94
2022-10-22T02:41:49.520Z,99845.72
2022-10-22T02:43:57.154Z,99832.77
2022-10-22T02:46:03.878Z,99821.13
2022-10-22T02:48:10.504Z,99817.14
2022-10-22T02:50:17.045Z,99810.52
2022-10-22T02:52:23.258Z,99808.24
2022-10-22T02:54:30.203Z,99799.25
2022-10-22T02:56:36.758Z,99788.23
2022-10-22T02:58:42.885Z,99778.29
2022-10-22T03:00:50.215Z,99772.36
2022-10-22T03:02:56.896Z,99773.00
2022-10-22T03:05:03.979Z,99776.91
2022-10-22T03:07:10.029Z,99776.19
2022-10-22T03:09:17.490Z,99764.40
2022-10-22T03:11:26.142Z,99754.17
2022-10-22T03:13:32.110Z,99745.20
2022-10-22T03:15:38.142Z,99741.41
2022-10-22T03:17:44.149Z,99731.18
2022-10-22T03:19:50.883Z,99720.84
2022-10-22T03:22:07.372Z,99722.42
2022-10-22T03:24:30.694Z,99722.21
2022-10-22T03:26:38.409Z,99720.09
2022-10-22T03:28:45.203Z,99714.77
2022-10-22T03:30:51.844Z,99714.14
2022-10-22T03:32:58.752Z,99706.71
2022-10-22T03:35:06.641Z,99701.71
2022-10-22T03:37:13.020Z,99699.45
2022-10-22T03:39:21.419Z,99696.58
2022-10-22T03:41:27.718Z,99701.59
2022-10-22T03:43:36.946Z,99698.77
2022-10-22T03:45:43.558Z,99694.31
2022-10-22T03:47:50.130Z,99687.05
2022-10-22T03:49:56.082Z,99679.27
2022-10-22T03:52:15.051Z,99676.63
2022-10-22T03:54:21.551Z,99662.40
2022-10-22T03:56:28.169Z,99662.35
2022-10-22T03:58:34.867Z,99649.20
2022-10-22T04:00:40.842Z,99643.11
2022-10-22T04:02:46.975Z,99629.45
2022-10-22T04:04:53.855Z,99625.55
2022-10-22T04:06:59.871Z,99624.28
2022-10-22T04:09:09.577Z,99620.70
2022-10-22T04:11:17.941Z,99614.79
2022-10-22T04:13:24.690Z,99608.84
2022-10-22T04:15:30.811Z,99603.39
2022-10-22T04:17:39.834Z,99593.38
2022-10-22T04:19:46.071Z,99585.48
2022-10-22T04:21:52.258Z,99601.46
2022-10-22T04:23:58.365Z,99668.66
2022-10-22T04:26:07.738Z,99692.17
2022-10-22T04:28:13.795Z,99693.48
2022-10-22T04:30:19.973Z,99713.27
2022-10-22T04:32:26.851Z,99716.39
2022-10-22T04:34:33.627Z,99713.46
2022-10-22T04:36:40.675Z,99713.27
2022-10-22T04:38:48.949Z,99698.67
2022-10-22T04:40:55.770Z,99705.98
2022-10-22T04:43:02.125Z,99714.55
2022-10-22T04:45:08.663Z,99721.73
2022-10-22T04:47:15.505Z,99723.88
2022-10-22T04:49:21.708Z,99728.54
2022-10-22T04:51:28.739Z,99741.88
2022-10-22T04:53:36.742Z,99750.52
2022-10-22T04:55:43.166Z,99763.55
2022-10-22T04:57:49.728Z,99767.70
2022-10-22T04:59:56.050Z,99773.36
2022-10-22T05:02:02.227Z,99784.91
2022-10-22T05:04:10.183Z,99793.67
2022-10-22T05:06:16.867Z,99798.06
2022-10-22T05:08:23.513Z,99807.87
2022-10-22T05:10:30.073Z,99814.90
2022-10-22T05:12:37.180Z,99827.57
2022-10-22T05:14:44.861Z,99836.70
2022-10-22T05:16:52.454Z,99849.36
2022-10-22T05:19:01.093Z,99856.87
2022-10-22T05:21:12.274Z,99862.89
2022-10-22T05:23:19.270Z,99865.85
2022-10-22T05:25:25.402Z,99873.09
2022-10-22T05:27:31.811Z,99884.64
2022-10-22T05:29:38.558Z,99888.45
2022-10-22T05:31:44.514Z,99878.35
2022-10-22T05:33:51.027Z,99885.39
2022-10-22T05:35:57.675Z,99890.38
2022-10-22T05:38:03.651Z,99895.00
2022-10-22T05:40:26.718Z,99899.94
2022-10-22T05:42:36.419Z,99901.73
2022-10-22T05:44:42.545Z,99901.42
2022-10-22T05:46:48.661Z,99899.30
2022-10-22T05:49:00.128Z,99896.40
2022-10-22T05:51:09.321Z,99896.40
2022-10-22T05:53:15.699Z,99899.76
2022-10-22T05:55:22.406Z,99901.22
2022-10-22T05:57:29.220Z,99903.63
2022-10-22T05:59:35.217Z,99909.27
2022-10-22T06:01:42.298Z,99913.69
2022-10-22T06:03:49.970Z,99922.12
2022-10-22T06:05:56.637Z,99924.84
2022-10-22T06:08:03.467Z,99928.58
2022-10-22T06:10:19.155Z,99934.41
2022-10-22T06:12:26.551Z,99932.58
2022-10-22T06:14:33.733Z,99938.66
2022-10-22T06:16:40.729Z,99940.07
2022-10-22T06:18:47.234Z,99946.98
2022-10-22T06:20:53.572Z,99944.57
2022-10-22T06:23:00.099Z,99949.70
2022-10-22T06:25:07.397Z,99958.30
2022-10-22T06:27:13.378Z,99967.13
2022-10-22T06:29:19.988Z,99974.48
2022-10-22T06:31:27.469Z,99972.59
2022-10-22T06:33:35.320Z,99976.66
2022-10-22T06:35:41.280Z,99981.41
2022-10-22T06:37:48.550Z,99991.09
2022-10-22T06:39:55.105Z,99989.11
2022-10-22T06:42:01.213Z,99992.08
2022-10-22T06:44:18.985Z,99991.22
2022-10-22T06:46:25.823Z,99991.20
2022-10-22T06:48:32.584Z,99995.63
2022-10-22T06:50:39.189Z,100001.31
2022-10-22T06:52:45.402Z,100004.20
2022-10-22T06:54:51.506Z,100007.08
2022-10-22T06:56:57.609Z,100013.95
2022-10-22T06:59:04.009Z,100014.27
2022-10-22T07:01:16.038Z,100008.79
2022-10-22T07:03:22.382Z,100015.12
2022-10-22T07:05:29.119Z,100019.02
2022-10-22T07:07:35.801Z,100017.98
2022-10-22T07:09:42.584Z,100027.27
2022-10-22T07:11:48.971Z,100041.60
2022-10-22T07:14:00.068Z,100043.85
2022-10-22T07:16:08.489Z,100052.80
2022-10-22T07:18:15.221Z,100047.70
2022-10-22T07:20:22.746Z,100047.23
2022-10-22T07:22:29.097Z,100043.30
2022-10-22T07:24:35.464Z,100046.16
2022-10-22T07:26:42.087Z,100052.23
2022-10-22T07:28:49.149Z,100062.14
2022-10-22T07:30:55.664Z,100068.60
2022-10-22T07:33:02.195Z,100073.86
2022-10-22T07:35:08.554Z,100078.25
2022-10-22T07:37:14.661Z,100081.91
2022-10-22T07:39:20.664Z,100080.63
2022-10-22T07:41:28.790Z,100081.91
2022-10-22T07:43:35.249Z,100085.79
2022-10-22T07:45:42.279Z,100087.80
2022-10-22T07:47:49.946Z,100091.96
2022-10-22T07:49:56.475Z,100094.35
2022-10-22T07:52:02.598Z,100098.45
2022-10-22T07:54:09.174Z,100102.35
2022-10-22T07:56:15.680Z,100106.96
2022-10-22T07:58:23.392Z,100109.64
2022-10-22T08:00:30.120Z,100115.69
2022-10-22T08:02:36.493Z,100121.70
2022-10-22T08:04:42.851Z,100123.93
2022-10-22T08:06:48.985Z,100120.67
2022-10-22T08:08:55.586Z,100123.05
2022-10-22T08:11:03.549Z,100126.23
2022-10-22T08:13:10.258Z,100129.87
2022-10-22T08:15:16.876Z,100130.55
2022-10-22T08:17:23.612Z,100135.81
2022-10-22T08:19:30.872Z,100137.67
2022-10-22T08:21:37.350Z,100137.25
2022-10-22T08:23:44.322Z,100134.66
2022-10-22T08:25:50.672Z,100135.59
2022-10-22T08:27:56.968Z,100136.42
2022-10-22T08:30:03.872Z,100139.67
2022-10-22T08:32:10.105Z,100143.72
2022-10-22T08:34:16.546Z,100143.95
2022-10-22T08:36:23.376Z,100149.09
2022-10-22T08:38:29.605Z,100149.48
2022-10-22T08:40:40.261Z,100151.42
2022-10-22T08:43:07.155Z,100154.84
2022-10-22T08:45:32.132Z,100155.38
2022-10-22T08:48:00.352Z,100158.20
2022-10-22T08:50:10.829Z,100160.25
2022-10-22T08:52:20.307Z,100162.92
2022-10-22T08:54:45.876Z,100158.27
2022-10-22T08:57:10.608Z,100161.98
2022-10-22T08:59:25.036Z,100164.48
2022-10-22T09:01:35.690Z,100161.40
2022-10-22T09:04:17.094Z,100161.14
2022-10-22T09:06:29.205Z,100163.75
2022-10-22T09:08:36.764Z,100159.63
2022-10-22T09:10:50.204Z,100162.45
2022-10-22T09:12:56.937Z,100166.54
2022-10-22T09:15:03.247Z,100159.93
2022-10-22T09:17:18.417Z,100152.92
2022-10-22T09:19:32.842Z,100152.23
2022-10-22T09:21:54.800Z,100154.52
2022-10-22T09:24:18.049Z,100153.99
2022-10-22T09:26:24.534Z,100149.23
2022-10-22T09:28:30.854Z,100148.55
2022-10-22T09:30:39.182Z,100149.66
2022-10-22T09:32:45.824Z,100149.84
2022-10-22T09:34:56.737Z,100149.86
2022-10-22T09:37:11.051Z,100154.27
2022-10-22T09:39:33.579Z,100156.87
2022-10-22T09:41:39.635Z,100155.95
2022-10-22T09:43:49.185Z,100155.63
2022-10-22T09:46:00.772Z,100158.16
2022-10-22T09:48:19.061Z,100163.09
2022-10-22T09:50:29.963Z,100168.05
2022-10-22T09:52:36.963Z,100171.29
2022-10-22T09:54:44.842Z,100172.31
2022-10-22T09:56:56.673Z,100176.86
2022-10-22T09:59:02.922Z,100178.45
2022-10-22T10:01:08.911Z,100181.39
2022-10-22T10:03:22.400Z,100184.77
2022-10-22T10:05:35.265Z,100184.86
2022-10-22T10:07:41.504Z,100191.84
2022-10-22T10:09:48.272Z,100189.30
2022-10-22T10:12:09.736Z,100191.30
2022-10-22T10:14:19.301Z,100190.07
2022-10-22T10:16:31.721Z,100189.92
2022-10-22T10:18:55.820Z,100195.16
2022-10-22T10:21:30.603Z,100200.89
2022-10-22T10:24:21.905Z,100202.15
2022-10-22T10:27:05.792Z,100198.66
2022-10-22T10:29:22.818Z,100203.39
2022-10-22T10:31:47.959Z,100200.27
2022-10-22T10:34:35.636Z,100200.21
2022-10-22T10:37:17.406Z,100200.30
2022-10-22T10:39:34.728Z,100200.28
2022-10-22T10:42:06.196Z,100200.36
2022-10-22T10:44:21.234Z,100203.26
2022-10-22T10:46:42.460Z,100199.80
2022-10-22T10:48:59.241Z,100198.77
2022-10-22T10:51:28.078Z,100193.83
2022-10-22T10:54:06.234Z,100187.95
2022-10-22T10:56:35.582Z,100185.21
2022-10-22T10:59:01.948Z,100185.13
2022-10-22T11:01:42.092Z,100187.16
2022-10-22T11:04:03.341Z,100182.85
2022-10-22T11:06:18.562Z,100183.55
2022-10-22T11:08:59.415Z,100187.70
2022-10-22T11:11:18.623Z,100184.34
2022-10-22T11:13:43.772Z,100183.84
2022-10-22T11:16:01.551Z,100187.98
2022-10-22T11:18:15.557Z,100193.79
2022-10-22T11:20:39.119Z,100198.17
2022-10-22T11:23:17.343Z,100199.91
2022-10-22T11:25:26.921Z,100208.33
2022-10-22T11:28:06.603Z,100210.21
2022-10-22T11:30:22.592Z,100205.84
2022-10-22T11:32:29.690Z,100207.23
2022-10-22T11:34:40.080Z,100206.51
2022-10-22T11:36:48.711Z,100201.95
2022-10-22T11:38:55.508Z,100201.70
2022-10-22T11:41:25.106Z,100198.17
2022-10-22T11:43:36.793Z,100201.14
2022-10-22T11:45:44.726Z,100202.98
2022-10-22T11:48:12.940Z,100201.79
2022-10-22T11:50:22.652Z,100205.70
2022-10-22T11:52:35.170Z,100204.67
2022-10-22T11:54:45.224Z,100209.42
2022-10-22T11:56:59.455Z,100206.06
2022-10-22T11:59:09.916Z,100204.25
2022-10-22T12:01:16.864Z,100203.77
2022-10-22T12:03:41.240Z,100202.98
2022-10-22T12:05:47.997Z,100203.96
2022-10-22T12:08:25.213Z,100205.02
2022-10-22T12:10:52.356Z,100207.98
2022-10-22T12:13:35.463Z,100207.62
2022-10-22T12:15:55.445Z,100208.80
2022-10-22T12:18:03.519Z,100207.67
2022-10-22T12:20:14.344Z,100200.81
2022-10-22T12:22:33.164Z,100205.37
2022-10-22T12:24:45.715Z,100212.23
2022-10-22T12:26:53.379Z,100215.77
2022-10-22T12:29:04.002Z,100212.32
2022-10-22T12:31:17.767Z,100215.79
2022-10-22T12:33:26.835Z,100216.99
2022-10-22T12:35:45.005Z,100213.34
2022-10-22T12:37:52.994Z,100214.60
2022-10-22T12:39:59.724Z,100214.01
2022-10-22T12:42:07.415Z,100214.20
2022-10-22T12:44:16.474Z,100215.14
2022-10-22T12:46:22.584Z,100217.32
2022-10-22T12:48:40.291Z,100215.76
2022-10-22T12:50:53.309Z,100215.16
2022-10-22T12:53:00.258Z,100211.73
2022-10-22T12:55:09.350Z,100212.23
2022-10-22T12:57:19.492Z,100212.08
2022-10-22T12:59:32.175Z,100216.15
2022-10-22T13:01:43.824Z,100218.58
2022-10-22T13:04:04.695Z,100221.62
2022-10-22T13:06:15.067Z,100224.66
2022-10-22T13:10:39.305Z,100226.66
2022-10-22T13:12:50.577Z,100232.27
2022-10-22T13:14:56.923Z,100238.73
2022-10-22T13:17:14.534Z,100234.12
2022-10-22T13:19:54.817Z,100242.15
2022-10-22T13:22:01.558Z,100240.72
2022-10-22T13:24:25.999Z,100244.01
2022-10-22T13:26:38.658Z,100250.16
2022-10-22T13:28:53.621Z,100251.73
2022-10-22T13:31:02.363Z,100255.60
2022-10-22T13:33:22.338Z,100258.46
2022-10-22T13:35:35.233Z,100261.95
2022-10-22T13:37:41.642Z,100262.95
2022-10-22T13:39:48.298Z,100257.23
2022-10-22T13:41:54.421Z,100254.15
2022-10-22T13:44:01.206Z,100258.26
2022-10-22T13:46:10.433Z,100264.71
2022-10-22T13:48:23.040Z,100263.45
2022-10-22T13:50:29.368Z,100266.17
2022-10-22T13:52:40.191Z,100267.96
2022-10-22T13:54:46.660Z,100270.45
2022-10-22T13:56:53.746Z,100275.05
2022-10-22T13:58:59.861Z,100273.19
2022-10-22T14:01:09.856Z,100272.65
2022-10-22T14:03:23.300Z,100273.76
2022-10-22T14:05:31.568Z,100278.75
2022-10-22T14:07:39.148Z,100281.00
2022-10-22T14:09:46.027Z,100286.55
2022-10-22T14:11:52.499Z,100288.95
2022-10-22T14:13:59.090Z,100288.20
2022-10-22T14:16:08.128Z,100291.69
2022-10-22T14:18:26.018Z,100293.57
2022-10-22T14:20:35.012Z,100291.45
2022-10-22T14:22:41.289Z,100290.36
2022-10-22T14:24:47.963Z,100290.83
2022-10-22T14:26:54.012Z,100295.05
2022-10-22T14:29:11.395Z,100292.48
2022-10-22T14:31:18.748Z,100294.46
2022-10-22T14:33:32.713Z,100296.91
2022-10-22T14:35:38.727Z,100293.41
2022-10-22T14:37:45.022Z,100299.23
2022-10-22T14:39:53.669Z,100300.26
2022-10-22T14:41:59.645Z,100304.03
2022-10-22T14:44:06.452Z,100310.30
2022-10-22T14:46:16.228Z,100315.57
2022-10-22T14:48:22.716Z,100316.64
2022-10-22T14:50:29.528Z,100318.76
2022-10-22T14:52:37.853Z,100321.64
2022-10-22T14:54:44.280Z,100317.52
2022-10-22T14:56:50.410Z,100315.48
2022-10-22T14:58:56.601Z,100317.89
2022-10-22T15:01:06.803Z,100320.17
2022-10-22T15:03:13.637Z,100326.81
2022-10-22T15:05:20.610Z,100328.55
2022-10-22T15:07:28.468Z,100332.30
2022-10-22T15:09:35.097Z,100335.81
2022-10-22T15:11:41.050Z,100340.02
2022-10-22T15:13:46.995Z,100341.39
2022-10-22T15:15:53.040Z,100340.66
2022-10-22T15:17:59.718Z,100345.53
2022-10-22T15:20:07.227Z,100348.27
2022-10-22T15:22:14.863Z,100350.83
2022-10-22T15:24:20.977Z,100353.60
2022-10-22T15:26:28.944Z,100351.73
2022-10-22T15:28:35.678Z,100350.35
2022-10-22T15:30:42.268Z,100351.85
2022-10-22T15:32:48.881Z,100357.96
2022-10-22T15:34:55.734Z,100360.38
2022-10-22T15:37:05.512Z,100361.95
2022-10-22T15:39:12.125Z,100362.23
2022-10-22T15:41:18.938Z,100363.49
2022-10-22T15:43:25.748Z,100361.92
2022-10-22T15:45:33.307Z,100370.92
2022-10-22T15:47:40.621Z,100364.89
2022-10-22T15:49:47.406Z,100365.91
2022-10-22T15:51:53.992Z,100364.89
2022-10-22T15:54:01.427Z,100365.75
2022-10-22T15:56:08.757Z,100367.81
2022-10-22T15:58:15.087Z,100369.56
2022-10-22T16:00:21.656Z,100373.69
2022-10-22T16:02:28.210Z,100376.23
2022-10-22T16:04:34.526Z,100380.25
2022-10-22T16:06:46.888Z,100378.66
2022-10-22T16:08:54.649Z,100384.88
2022-10-22T16:11:01.661Z,100382.57
2022-10-22T16:13:08.356Z,100382.90
2022-10-22T16:15:14.930Z,100386.59
2022-10-22T16:17:21.380Z,100386.47
2022-10-22T16:19:27.835Z,100388.70
2022-10-22T16:21:34.554Z,100391.88
2022-10-22T16:23:41.042Z,100397.67
2022-10-22T16:25:47.865Z,100398.39
2022-10-22T16:27:54.319Z,100399.67
2022-10-22T16:30:00.667Z,100400.84
2022-10-22T16:32:07.421Z,100406.63
2022-10-22T16:34:14.254Z,100402.44
2022-10-22T16:36:22.020Z,100407.05
2022-10-22T16:38:28.762Z,100407.54
2022-10-22T16:40:35.909Z,100408.61
2022-10-22T16:42:43.090Z,100409.42
2022-10-22T16:44:49.736Z,100409.33
2022-10-22T16:46:55.968Z,100415.64
2022-10-22T16:49:02.512Z,100417.94
2022-10-22T16:51:10.386Z,100412.31
2022-10-22T16:53:16.942Z,100413.11
2022-10-22T16:55:23.483Z,100414.38
2022-10-22T16:57:30.140Z,100414.89
2022-10-22T16:59:36.547Z,100414.45
2022-10-22T17:01:43.276Z,100419.55
2022-10-22T17:03:50.081Z,100418.77
2022-10-22T17:06:00.347Z,100420.75
2022-10-22T17:08:07.198Z,100427.64
2022-10-22T17:10:13.551Z,100427.84
2022-10-22T17:12:20.204Z,100426.56
2022-10-22T17:14:27.064Z,100428.19
2022-10-22T17:16:33.614Z,100429.35
2022-10-22T17:18:42.481Z,100435.28
2022-10-22T17:20:48.935Z,100435.84
2022-10-22T17:22:55.466Z,100436.10
2022-10-22T17:25:15.158Z,100435.34
2022-10-22T17:27:21.145Z,100436.60
2022-10-22T17:29:27.210Z,100441.34
2022-10-22T17:31:41.262Z,100442.56
2022-10-22T17:33:48.480Z,100438.60
2022-10-22T17:35:54.982Z,100442.88
2022-10-22T17:38:01.573Z,100445.67
2022-10-22T17:40:08.364Z,100445.75
2022-10-22T17:42:14.459Z,100441.59
2022-10-22T17:44:21.189Z,100442.69
2022-10-22T17:46:30.624Z,100448.18
2022-10-22T17:48:37.319Z,100448.17
2022-10-22T17:50:48.216Z,100445.45
2022-10-22T17:52:57.562Z,100443.25
2022-10-22T17:55:04.504Z,100445.36
2022-10-22T17:57:11.884Z,100447.77
2022-10-22T17:59:18.329Z,100445.15
2022-10-22T18:01:30.019Z,100444.12
2022-10-22T18:03:36.602Z,100448.14
2022-10-22T18:05:43.062Z,100448.85
2022-10-22T18:07:49.632Z,100452.41
2022-10-22T18:09:55.934Z,100450.19
2022-10-22T18:12:02.933Z,100451.56
2022-10-22T18:14:09.684Z,100451.31
2022-10-22T18:16:17.129Z,100453.27
2022-10-22T18:18:25.304Z,100453.29
2022-10-22T18:20:31.569Z,100452.73
2022-10-22T18:22:38.463Z,100456.20
2022-10-22T18:24:44.363Z,100454.52
2022-10-22T18:26:50.436Z,100457.48
2022-10-22T18:28:58.102Z,100453.95
2022-10-22T18:31:08.619Z,100453.31
2022-10-22T18:33:17.343Z,100449.34
2022-10-22T18:35:23.279Z,100452.09
2022-10-22T18:37:29.642Z,100453.34
2022-10-22T18:39:36.633Z,100450.20
2022-10-22T18:41:43.371Z,100452.05
2022-10-22T18:44:04.770Z,100452.09
2022-10-22T18:46:11.287Z,100451.55
2022-10-22T18:48:20.489Z,100453.30
2022-10-22T18:50:26.893Z,100455.21
2022-10-22T18:52:33.317Z,100454.35
2022-10-22T18:54:39.967Z,100457.89
2022-10-22T18:56:46.225Z,100457.70
2022-10-22T18:58:52.955Z,100459.26
2022-10-22T19:00:59.357Z,100456.38
2022-10-22T19:03:06.671Z,100462.93
2022-10-22T19:05:14.062Z,100462.70
2022-10-22T19:07:20.505Z,100465.52
2022-10-22T19:09:27.747Z,100470.41
2022-10-22T19:11:34.429Z,100473.55
2022-10-22T19:13:42.426Z,100470.25
2022-10-22T19:15:48.709Z,100472.61
2022-10-22T19:17:55.253Z,100473.45
2022-10-22T19:20:01.670Z,100474.39
2022-10-22T19:22:08.193Z,100473.52
2022-10-22T19:24:16.459Z,100476.19
2022-10-22T19:26:25.073Z,100471.45
2022-10-22T19:28:31.467Z,100466.01
2022-10-22T19:30:41.728Z,100466.04
2022-10-22T19:32:49.931Z,100466.13
2022-10-22T19:34:56.312Z,100464.48
2022-10-22T19:37:02.456Z,100471.17
2022-10-22T19:39:10.040Z,100474.07
2022-10-22T19:41:19.982Z,100472.27
2022-10-22T19:43:27.458Z,100474.02
2022-10-22T19:45:33.912Z,100475.66
2022-10-22T19:47:40.784Z,100473.44
2022-10-22T19:49:47.399Z,100471.83
2022-10-22T19:51:54.548Z,100461.11
2022-10-22T19:54:03.480Z,100466.09
2022-10-22T19:56:12.153Z,100469.55
2022-10-22T19:58:18.686Z,100468.48
2022-10-22T20:00:25.425Z,100463.92
2022-10-22T20:02:31.487Z,100469.23
2022-10-22T20:04:38.271Z,100467.26
2022-10-22T20:06:44.839Z,100460.71
2022-10-22T20:08:55.170Z,100459.27
2022-10-22T20:11:02.928Z,100457.90
2022-10-22T20:13:09.115Z,100451.37
2022-10-22T20:15:15.902Z,100447.63
2022-10-22T20:17:22.432Z,100445.24
2022-10-22T20:19:30.341Z,100443.89
2022-10-22T20:21:37.042Z,100433.44
2022-10-22T20:23:44.604Z,100429.11
2022-10-22T20:25:50.796Z,100424.33
2022-10-22T20:27:57.334Z,100424.48
2022-10-22T20:30:04.362Z,100425.09
2022-10-22T20:32:10.574Z,100432.48
2022-10-22T20:34:16.811Z,100438.19
2022-10-22T20:36:24.566Z,100448.54
2022-10-22T20:38:30.878Z,100457.10
2022-10-22T20:40:38.354Z,100464.50
2022-10-22T20:42:45.094Z,100465.24
2022-10-22T20:44:51.387Z,100465.34
2022-10-22T20:49:34.461Z,100459.41
2022-10-22T20:51:41.483Z,100461.75
2022-10-22T20:53:48.390Z,100450.87
2022-10-22T20:55:59.401Z,100445.48
2022-10-22T20:58:05.552Z,100440.59
2022-10-22T21:00:12.345Z,100436.41
2022-10-22T21:02:18.666Z,100433.98
2022-10-22T21:04:25.105Z,100430.90
2022-10-22T21:06:31.600Z,100427.58
2022-10-22T21:08:37.885Z,100424.14
2022-10-22T21:10:49.834Z,100423.73
2022-10-22T21:12:56.583Z,100422.11
2022-10-22T21:15:02.590Z,100421.55
2022-10-22T21:17:09.578Z,100421.02
2022-10-22T21:19:15.590Z,100420.90
2022-10-22T21:21:22.000Z,100411.95
2022-10-22T21:23:28.082Z,100412.16
2022-10-22T21:25:34.807Z,100407.96
2022-10-22T21:27:41.458Z,100401.92
2022-10-22T21:29:47.404Z,100400.60
2022-10-22T21:31:54.803Z,100399.86
2022-10-22T21:34:00.792Z,100402.81
2022-10-22T21:36:07.862Z,100405.41
2022-10-22T21:38:13.856Z,100409.18
2022-10-22T21:40:19.791Z,100407.30
2022-10-22T21:42:26.261Z,100412.73
2022-10-22T21:44:32.480Z,100413.04
2022-10-22T21:46:39.063Z,100413.63
2022-10-22T21:48:46.075Z,100419.84
2022-10-22T21:50:52.504Z,100420.30
2022-10-22T21:52:59.283Z,100428.25
2022-10-22T21:55:05.783Z,100430.10
2022-10-22T21:57:12.565Z,100429.98
2022-10-22T21:59:18.998Z,100431.98
2022-10-22T22:01:25.749Z,100431.80
2022-10-22T22:03:32.053Z,100430.17
2022-10-22T22:05:39.127Z,100429.02
2022-10-22T22:07:45.656Z,100433.79
2022-10-22T22:09:52.949Z,100426.04
2022-10-22T22:11:59.324Z,100425.56
2022-10-22T22:14:06.243Z,100421.67
2022-10-22T22:16:16.009Z,100422.05
2022-10-22T22:18:22.353Z,100425.35
2022-10-22T22:20:29.229Z,100424.78
2022-10-22T22:22:35.819Z,100422.84
2022-10-22T22:24:42.166Z,100426.48
2022-10-22T22:26:50.016Z,100424.91
2022-10-22T22:28:57.662Z,100421.63
2022-10-22T22:31:14.535Z,100427.48
2022-10-22T22:33:20.837Z,100434.66
2022-10-22T22:35:27.889Z,100438.30
2022-10-22T22:37:34.347Z,100438.54
2022-10-22T22:39:41.055Z,100438.38
2022-10-22T22:41:47.865Z,100438.66
2022-10-22T22:46:08.241Z,100443.92
2022-10-22T22:48:14.477Z,100446.23
2022-10-22T22:50:20.740Z,100450.52
2022-10-22T22:52:26.855Z,100449.23
2022-10-22T22:54:32.967Z,100455.05
2022-10-22T22:56:39.378Z,100453.46
2022-10-22T22:58:45.841Z,100460.14
2022-10-22T23:00:52.486Z,100461.59
2022-10-22T23:02:58.501Z,100464.23
2022-10-22T23:05:04.591Z,100471.11
2022-10-22T23:07:10.730Z,100476.80
2022-10-22T23:11:25.667Z,100478.35
2022-10-22T23:13:32.185Z,100477.34
2022-10-22T23:15:41.501Z,100478.38
2022-10-22T23:17:47.870Z,100471.12
2022-10-22T23:19:54.871Z,100467.52
2022-10-22T23:22:02.046Z,100469.56
2022-10-22T23:24:11.523Z,100471.52
2022-10-22T23:26:21.569Z,100473.48
2022-10-22T23:28:28.433Z,100477.66
2022-10-22T23:30:35.177Z,100471.39
2022-10-22T23:32:42.337Z,100476.31
2022-10-22T23:34:48.387Z,100482.84
2022-10-22T23:36:55.766Z,100480.02
2022-10-22T23:39:04.002Z,100485.42
2022-10-22T23:41:11.020Z,100489.69
2022-10-22T23:43:17.046Z,100485.36
2022-10-22T23:45:23.405Z,100494.33
2022-10-22T23:47:29.315Z,100489.07
2022-10-22T23:49:36.417Z,100495.83
2022-10-22T23:51:43.270Z,100498.56
2022-10-22T23:53:55.389Z,100500.56
2022-10-22T23:56:06.752Z,100506.98
2022-10-22T23:58:13.333Z,100514.77
